createdAt,value
2023-01-06T00:01:17.075Z,2.45
2023-01-06T00:03:49.053Z,3.47
2023-01-06T00:06:16.440Z,4.43
2023-01-06T00:08:43.788Z,1.65
2023-01-06T00:11:13.206Z,3.28
2023-01-06T00:13:41.260Z,2.00
2023-01-06T00:16:13.617Z,2.58
2023-01-06T00:18:41.963Z,4.15
2023-01-06T00:21:09.735Z,2.72
2023-01-06T00:23:37.729Z,2.87
2023-01-06T00:26:06.755Z,4.70
2023-01-06T00:28:35.508Z,2.45
2023-01-06T00:31:11.204Z,1.73
2023-01-06T00:33:41.208Z,2.72
2023-01-06T00:36:10.925Z,3.95
2023-01-06T00:38:38.818Z,2.47
2023-01-06T00:41:29.575Z,2.65
2023-01-06T00:43:57.751Z,3.25
2023-01-06T00:46:29.177Z,1.80
2023-01-06T00:49:06.581Z,2.55
2023-01-06T00:51:36.644Z,2.28
2023-01-06T00:54:06.195Z,4.32
2023-01-06T00:56:36.985Z,5.00
2023-01-06T00:59:05.141Z,3.10
2023-01-06T01:01:33.524Z,2.78
2023-01-06T01:04:01.148Z,5.90
2023-01-06T01:06:28.863Z,3.83
2023-01-06T01:08:57.531Z,2.37
2023-01-06T01:11:44.063Z,4.15
2023-01-06T01:14:12.755Z,3.37
2023-01-06T01:16:40.829Z,5.28
2023-01-06T01:19:08.877Z,3.92
2023-01-06T01:21:36.688Z,2.15
2023-01-06T01:24:04.329Z,4.10
2023-01-06T01:26:31.818Z,2.55
2023-01-06T01:28:59.504Z,2.37
2023-01-06T01:31:26.967Z,4.05
2023-01-06T01:33:54.356Z,4.75
2023-01-06T01:36:22.300Z,2.37
2023-01-06T01:38:49.768Z,5.55
2023-01-06T01:41:21.442Z,3.45
2023-01-06T01:43:51.886Z,5.90
2023-01-06T01:46:27.119Z,4.15
2023-01-06T01:48:58.529Z,6.18
2023-01-06T01:51:31.064Z,3.62
2023-01-06T01:54:01.987Z,5.57
2023-01-06T01:56:31.820Z,3.53
2023-01-06T01:59:12.241Z,3.42
2023-01-06T02:01:39.795Z,4.03
2023-01-06T02:04:08.548Z,3.62
2023-01-06T02:06:36.260Z,5.45
2023-01-06T02:09:16.319Z,2.50
2023-01-06T02:11:45.144Z,4.50
2023-01-06T02:14:17.819Z,4.10
2023-01-06T02:16:45.415Z,3.65
2023-01-06T02:19:51.655Z,3.25
2023-01-06T02:22:31.086Z,4.12
2023-01-06T02:25:16.099Z,3.83
2023-01-06T02:28:11.044Z,2.60
2023-01-06T02:30:51.598Z,6.28
2023-01-06T02:33:27.506Z,2.22
2023-01-06T02:36:07.846Z,6.10
2023-01-06T02:38:57.299Z,4.68
2023-01-06T02:41:32.931Z,3.47
2023-01-06T02:44:38.191Z,4.12
2023-01-06T02:47:36.679Z,5.93
2023-01-06T02:50:25.520Z,5.53
2023-01-06T02:52:57.930Z,4.75
2023-01-06T02:58:08.580Z,2.50
2023-01-06T03:00:40.817Z,4.70
2023-01-06T03:03:17.935Z,3.50
2023-01-06T03:05:47.703Z,3.67
2023-01-06T03:08:25.371Z,4.55
2023-01-06T03:10:53.935Z,4.80
2023-01-06T03:13:35.269Z,4.10
2023-01-06T03:16:03.239Z,5.25
2023-01-06T03:18:31.163Z,3.62
2023-01-06T03:21:01.708Z,4.70
2023-01-06T03:23:29.095Z,3.78
2023-01-06T03:25:56.827Z,3.45
2023-01-06T03:28:24.709Z,2.20
2023-01-06T03:31:15.382Z,1.98
2023-01-06T03:34:13.558Z,3.90
2023-01-06T03:37:09.076Z,3.22
2023-01-06T03:39:36.831Z,5.40
2023-01-06T03:42:36.434Z,2.45
2023-01-06T03:45:10.953Z,3.83
2023-01-06T03:47:52.725Z,3.37
2023-01-06T03:50:25.526Z,3.10
2023-01-06T03:53:01.104Z,3.05
2023-01-06T03:55:32.277Z,3.22
2023-01-06T03:58:01.009Z,3.08
2023-01-06T04:00:31.786Z,3.00
2023-01-06T04:03:00.761Z,4.47
2023-01-06T04:05:29.209Z,2.87
2023-01-06T04:07:57.268Z,7.57
2023-01-06T04:10:24.962Z,4.30
2023-01-06T04:12:52.945Z,2.87
2023-01-06T04:15:22.661Z,4.07
2023-01-06T04:17:51.400Z,3.72
2023-01-06T04:20:21.565Z,3.53
2023-01-06T04:22:49.382Z,6.80
2023-01-06T04:25:17.130Z,4.53
2023-01-06T04:27:44.571Z,7.57
2023-01-06T04:30:12.991Z,4.60
2023-01-06T04:32:40.787Z,5.53
2023-01-06T04:35:09.110Z,3.97
2023-01-06T04:37:37.074Z,5.22
2023-01-06T04:40:06.466Z,4.70
2023-01-06T04:42:54.196Z,5.68
2023-01-06T04:45:22.422Z,7.50
2023-01-06T04:47:49.844Z,6.65
2023-01-06T04:50:17.434Z,6.12
2023-01-06T04:52:45.057Z,5.07
2023-01-06T04:55:12.442Z,6.20
2023-01-06T04:57:39.899Z,3.17
2023-01-06T05:00:08.115Z,5.15
2023-01-06T05:02:35.469Z,5.37
2023-01-06T05:05:02.849Z,6.20
2023-01-06T05:07:30.604Z,7.50
2023-01-06T05:09:58.038Z,7.15
2023-01-06T05:12:25.490Z,4.35
2023-01-06T05:14:53.165Z,5.22
2023-01-06T05:17:20.546Z,5.57
2023-01-06T05:19:48.001Z,6.37
2023-01-06T05:22:15.663Z,9.05
2023-01-06T05:24:43.138Z,7.78
2023-01-06T05:27:10.607Z,4.07
2023-01-06T05:29:38.585Z,6.45
2023-01-06T05:32:06.227Z,5.40
2023-01-06T05:34:33.573Z,5.57
2023-01-06T05:37:01.199Z,7.32
2023-01-06T05:39:28.541Z,4.90
2023-01-06T05:41:55.933Z,8.23
2023-01-06T05:44:23.577Z,4.90
2023-01-06T05:46:50.970Z,4.45
2023-01-06T05:49:18.358Z,5.68
2023-01-06T05:51:46.044Z,5.68
2023-01-06T05:54:14.020Z,6.03
2023-01-06T05:56:41.476Z,8.93
2023-01-06T05:59:09.257Z,5.03
2023-01-06T06:01:36.792Z,4.55
2023-01-06T06:04:04.670Z,8.48
2023-01-06T06:06:32.122Z,5.50
2023-01-06T06:08:59.683Z,6.87
2023-01-06T06:11:27.358Z,8.77
2023-01-06T06:13:55.939Z,5.53
2023-01-06T06:16:25.766Z,10.27
2023-01-06T06:18:55.681Z,5.82
2023-01-06T06:21:25.757Z,8.10
2023-01-06T06:23:54.502Z,9.23
2023-01-06T06:26:22.187Z,6.28
2023-01-06T06:28:49.578Z,6.85
2023-01-06T06:31:22.878Z,6.50
2023-01-06T06:33:55.624Z,5.18
2023-01-06T06:36:24.132Z,8.55
2023-01-06T06:38:53.169Z,7.30
2023-01-06T06:41:21.434Z,7.57
2023-01-06T06:43:50.123Z,5.85
2023-01-06T06:46:18.532Z,11.68
2023-01-06T06:48:46.276Z,7.55
2023-01-06T06:51:16.974Z,7.45
2023-01-06T06:53:45.064Z,10.10
2023-01-06T06:56:13.660Z,6.78
2023-01-06T06:58:41.296Z,7.57
2023-01-06T07:01:14.436Z,9.25
2023-01-06T07:03:42.292Z,6.53
2023-01-06T07:06:15.021Z,10.05
2023-01-06T07:08:44.262Z,8.32
2023-01-06T07:11:11.785Z,6.40
2023-01-06T07:13:39.196Z,6.78
2023-01-06T07:16:07.495Z,7.15
2023-01-06T07:18:35.207Z,7.00
2023-01-06T07:21:02.879Z,6.20
2023-01-06T07:23:30.654Z,8.35
2023-01-06T07:26:00.233Z,7.30
2023-01-06T07:28:28.785Z,5.68
2023-01-06T07:30:56.559Z,4.40
2023-01-06T07:33:24.414Z,8.45
2023-01-06T07:35:55.832Z,6.80
2023-01-06T07:38:23.818Z,5.82
2023-01-06T07:40:51.665Z,7.18
2023-01-06T07:43:19.102Z,4.55
2023-01-06T07:45:48.057Z,5.43
2023-01-06T07:48:16.028Z,3.92
2023-01-06T07:50:43.766Z,6.35
2023-01-06T07:53:11.929Z,7.30
2023-01-06T07:55:39.402Z,4.90
2023-01-06T07:58:08.521Z,5.40
2023-01-06T08:00:36.584Z,5.07
2023-01-06T08:03:06.390Z,7.07
2023-01-06T08:05:41.835Z,5.22
2023-01-06T08:08:11.092Z,3.60
2023-01-06T08:10:40.494Z,5.80
2023-01-06T08:13:08.721Z,4.93
2023-01-06T08:15:37.339Z,4.50
2023-01-06T08:18:05.060Z,3.17
2023-01-06T08:20:34.050Z,4.65
2023-01-06T08:23:02.443Z,6.50
2023-01-06T08:25:29.899Z,6.87
2023-01-06T08:27:58.710Z,4.15
2023-01-06T08:30:26.579Z,2.42
2023-01-06T08:32:57.420Z,5.80
2023-01-06T08:35:25.512Z,3.78
2023-01-06T08:37:53.202Z,3.05
2023-01-06T08:40:20.586Z,1.95
2023-01-06T08:42:48.008Z,3.15
2023-01-06T08:45:15.775Z,2.35
2023-01-06T08:47:43.147Z,4.25
2023-01-06T08:50:10.544Z,2.62
2023-01-06T08:52:38.248Z,3.03
2023-01-06T08:55:05.973Z,3.10
2023-01-06T08:57:33.967Z,2.62
2023-01-06T09:00:02.060Z,1.80
2023-01-06T09:02:31.433Z,3.20
2023-01-06T09:04:58.973Z,1.12
2023-01-06T09:07:26.674Z,2.17
2023-01-06T09:09:54.208Z,4.37
2023-01-06T09:12:21.570Z,2.92
2023-01-06T09:14:49.267Z,3.15
2023-01-06T09:17:16.684Z,4.32
2023-01-06T09:19:44.080Z,3.10
2023-01-06T09:22:11.786Z,5.57
2023-01-06T09:24:39.443Z,3.72
2023-01-06T09:27:06.855Z,2.90
2023-01-06T09:29:34.590Z,3.70
2023-01-06T09:32:03.370Z,2.78
2023-01-06T09:34:30.993Z,4.25
2023-01-06T09:36:58.761Z,3.10
2023-01-06T09:39:27.057Z,3.72
2023-01-06T09:42:05.355Z,3.03
2023-01-06T09:45:01.774Z,2.42
2023-01-06T09:47:42.669Z,5.37
2023-01-06T09:50:17.697Z,3.78
2023-01-06T09:52:51.975Z,4.65
2023-01-06T09:55:31.315Z,3.10
2023-01-06T09:58:01.663Z,4.00
2023-01-06T10:00:32.288Z,3.17
2023-01-06T10:03:00.024Z,2.33
2023-01-06T10:05:42.839Z,4.35
2023-01-06T10:08:22.861Z,6.10
2023-01-06T10:11:12.103Z,4.43
2023-01-06T10:14:11.254Z,4.57
2023-01-06T10:16:49.409Z,3.78
2023-01-06T10:19:32.244Z,5.93
2023-01-06T10:24:48.299Z,4.62
2023-01-06T10:27:18.359Z,3.85
2023-01-06T10:29:47.537Z,4.28
2023-01-06T10:32:17.199Z,4.78
2023-01-06T10:34:46.713Z,4.03
2023-01-06T10:37:17.313Z,6.07
2023-01-06T10:39:47.166Z,4.45
2023-01-06T10:42:50.340Z,4.90
2023-01-06T10:45:18.079Z,3.05
2023-01-06T10:47:45.940Z,4.45
2023-01-06T10:50:18.204Z,3.90
2023-01-06T10:52:47.012Z,4.93
2023-01-06T10:55:29.631Z,5.53
2023-01-06T10:58:01.455Z,4.70
2023-01-06T11:00:28.904Z,5.70
2023-01-06T11:03:19.679Z,4.87
2023-01-06T11:06:10.164Z,6.40
2023-01-06T11:08:38.789Z,5.12
2023-01-06T11:11:27.729Z,3.35
2023-01-06T11:13:58.869Z,5.60
2023-01-06T11:16:29.366Z,2.22
2023-01-06T11:19:00.750Z,5.40
2023-01-06T11:21:43.606Z,10.77
2023-01-06T11:24:24.025Z,5.40
2023-01-06T11:27:01.867Z,9.63
2023-01-06T11:29:35.777Z,4.00
2023-01-06T11:32:18.983Z,2.70
2023-01-06T11:35:02.693Z,2.00
2023-01-06T11:37:39.557Z,1.70
2023-01-06T11:40:28.298Z,5.95
2023-01-06T11:43:01.937Z,2.28
2023-01-06T11:45:36.119Z,6.30
2023-01-06T11:48:06.440Z,3.75
2023-01-06T11:50:34.154Z,2.03
2023-01-06T11:53:04.826Z,2.47
2023-01-06T11:55:32.251Z,3.35
2023-01-06T11:58:04.248Z,2.15
2023-01-06T12:00:55.315Z,2.20
2023-01-06T12:03:26.241Z,3.35
2023-01-06T12:06:01.577Z,2.83
2023-01-06T12:08:40.757Z,3.42
2023-01-06T12:11:17.352Z,3.35
2023-01-06T12:14:06.595Z,2.50
2023-01-06T12:16:39.235Z,2.15
2023-01-06T12:19:17.769Z,2.75
2023-01-06T12:21:45.177Z,2.00
2023-01-06T12:24:16.686Z,3.30
2023-01-06T12:26:44.561Z,1.60
2023-01-06T12:29:18.817Z,3.20
2023-01-06T12:32:04.970Z,3.65
2023-01-06T12:34:50.343Z,2.22
2023-01-06T12:37:27.595Z,3.45
2023-01-06T12:40:03.966Z,4.03
2023-01-06T12:42:36.453Z,2.47
2023-01-06T12:45:12.784Z,3.85
2023-01-06T12:47:48.725Z,3.40
2023-01-06T12:50:41.696Z,4.47
2023-01-06T12:53:23.019Z,2.70
2023-01-06T12:56:14.921Z,5.03
2023-01-06T12:59:06.646Z,2.70
2023-01-06T13:01:46.066Z,3.30
2023-01-06T13:04:35.739Z,6.20
2023-01-06T13:07:12.484Z,4.82
2023-01-06T13:10:01.804Z,4.60
2023-01-06T13:12:41.289Z,7.18
2023-01-06T13:15:35.463Z,5.40
2023-01-06T13:18:38.552Z,4.75
2023-01-06T13:21:11.471Z,3.90
2023-01-06T13:23:57.194Z,3.92
2023-01-06T13:26:52.916Z,5.37
2023-01-06T13:29:57.783Z,3.17
2023-01-06T13:32:34.057Z,5.78
2023-01-06T13:35:13.517Z,3.28
2023-01-06T13:37:55.332Z,3.53
2023-01-06T13:40:27.165Z,6.32
2023-01-06T13:43:04.158Z,7.45
2023-01-06T13:45:37.478Z,5.25
2023-01-06T13:48:09.136Z,5.85
2023-01-06T13:50:41.811Z,6.30
2023-01-06T13:53:20.794Z,5.97
2023-01-06T13:55:48.904Z,6.43
2023-01-06T13:58:30.609Z,9.38
2023-01-06T14:01:20.250Z,8.63
2023-01-06T14:03:50.215Z,12.27
2023-01-06T14:06:23.696Z,5.20
2023-01-06T14:08:53.895Z,5.05
2023-01-06T14:11:30.999Z,4.78
2023-01-06T14:14:00.591Z,4.43
2023-01-06T14:16:40.196Z,2.72
2023-01-06T14:19:13.202Z,4.47
2023-01-06T14:21:40.884Z,4.50
2023-01-06T14:24:20.438Z,6.50
2023-01-06T14:27:02.456Z,10.15
2023-01-06T14:29:42.266Z,9.43
2023-01-06T14:32:15.720Z,18.58
2023-01-06T14:34:51.812Z,24.12
2023-01-06T14:37:20.373Z,24.90
2023-01-06T14:39:50.472Z,25.83
2023-01-06T14:42:23.991Z,20.45
2023-01-06T14:44:53.734Z,15.60
2023-01-06T14:47:33.855Z,10.95
2023-01-06T14:50:07.979Z,11.95
2023-01-06T14:52:38.778Z,11.68
2023-01-06T14:55:17.627Z,9.13
2023-01-06T14:57:45.316Z,10.43
2023-01-06T15:00:23.959Z,8.57
2023-01-06T15:02:54.097Z,10.32
2023-01-06T15:05:42.024Z,19.73
2023-01-06T15:08:09.336Z,24.87
2023-01-06T15:10:39.733Z,36.05
2023-01-06T15:13:24.996Z,46.58
2023-01-06T15:16:20.340Z,44.58
2023-01-06T15:18:48.092Z,43.58
2023-01-06T15:21:17.816Z,41.25
2023-01-06T15:23:47.493Z,47.13
2023-01-06T15:26:21.019Z,53.40
2023-01-06T15:28:58.876Z,57.30
2023-01-06T15:31:27.253Z,51.13
2023-01-06T15:33:55.786Z,50.10
2023-01-06T15:36:24.175Z,43.13
2023-01-06T15:38:53.054Z,43.22
2023-01-06T15:41:32.750Z,44.05
2023-01-06T15:44:01.223Z,46.95
2023-01-06T15:46:40.889Z,64.32
2023-01-06T15:49:21.126Z,63.03
2023-01-06T15:51:55.347Z,51.35
2023-01-06T15:54:24.070Z,64.68
2023-01-06T15:56:51.807Z,59.33
2023-01-06T15:59:20.380Z,53.45
2023-01-06T16:01:50.369Z,60.08
2023-01-06T16:04:18.618Z,59.05
2023-01-06T16:06:46.110Z,64.85
2023-01-06T16:09:19.567Z,64.57
2023-01-06T16:12:04.047Z,57.70
2023-01-06T16:14:35.560Z,56.22
2023-01-06T16:17:15.519Z,50.92
2023-01-06T16:19:50.226Z,54.50
2023-01-06T16:22:43.728Z,48.60
2023-01-06T16:25:23.030Z,49.88
2023-01-06T16:27:51.959Z,53.97
2023-01-06T16:30:30.751Z,49.88
2023-01-06T16:33:00.321Z,61.88
2023-01-06T16:35:32.568Z,74.45
2023-01-06T16:38:00.738Z,106.68
2023-01-06T16:40:28.809Z,105.87
2023-01-06T16:43:01.060Z,95.10
2023-01-06T16:45:31.672Z,92.60
2023-01-06T16:47:59.117Z,80.32
2023-01-06T16:50:37.086Z,81.55
2023-01-06T16:53:12.200Z,58.85
2023-01-06T16:55:40.478Z,57.28
2023-01-06T16:58:18.129Z,81.80
2023-01-06T17:00:54.160Z,77.45
2023-01-06T17:03:22.803Z,78.87
2023-01-06T17:05:51.422Z,73.87
2023-01-06T17:08:25.899Z,68.25
2023-01-06T17:10:53.593Z,65.95
2023-01-06T17:13:36.563Z,66.00
2023-01-06T17:16:10.594Z,56.00
2023-01-06T17:18:51.236Z,55.08
2023-01-06T17:21:27.378Z,55.33
2023-01-06T17:24:06.282Z,48.35
2023-01-06T17:26:34.189Z,48.67
2023-01-06T17:29:02.113Z,49.33
2023-01-06T17:31:32.556Z,42.90
2023-01-06T17:34:31.619Z,50.22
2023-01-06T17:37:13.004Z,43.65
2023-01-06T17:39:43.558Z,32.00
2023-01-06T17:42:10.826Z,32.30
2023-01-06T17:44:50.578Z,30.52
2023-01-06T17:47:18.213Z,38.85
2023-01-06T17:49:59.068Z,39.70
2023-01-06T17:52:36.534Z,34.83
2023-01-06T17:55:44.779Z,34.28
2023-01-06T17:58:22.549Z,34.97
2023-01-06T18:00:49.993Z,33.78
2023-01-06T18:03:47.189Z,34.35
2023-01-06T18:06:30.199Z,32.53
2023-01-06T18:09:08.614Z,30.08
2023-01-06T18:11:39.190Z,34.72
2023-01-06T18:14:27.968Z,32.53
2023-01-06T18:16:57.293Z,34.42
2023-01-06T18:19:26.862Z,37.72
2023-01-06T18:21:54.600Z,63.17
2023-01-06T18:24:30.762Z,70.28
2023-01-06T18:27:00.960Z,62.75
2023-01-06T18:29:36.654Z,63.15
2023-01-06T18:32:26.301Z,57.85
2023-01-06T18:34:56.069Z,45.80
2023-01-06T18:37:26.444Z,38.45
2023-01-06T18:39:58.620Z,35.85
2023-01-06T18:42:29.314Z,31.55
2023-01-06T18:45:22.501Z,33.60
2023-01-06T18:47:55.631Z,35.22
2023-01-06T18:50:34.121Z,31.67
2023-01-06T18:53:41.284Z,40.53
2023-01-06T18:56:17.412Z,44.10
2023-01-06T18:58:54.737Z,38.00
2023-01-06T19:01:31.143Z,34.42
2023-01-06T19:04:18.785Z,39.60
2023-01-06T19:06:55.817Z,41.15
2023-01-06T19:09:33.786Z,69.37
2023-01-06T19:12:24.028Z,53.85
2023-01-06T19:14:52.838Z,41.13
2023-01-06T19:17:37.118Z,44.38
2023-01-06T19:20:14.570Z,34.03
2023-01-06T19:22:42.209Z,35.55
2023-01-06T19:25:33.285Z,35.58
2023-01-06T19:28:09.863Z,39.72
2023-01-06T19:30:45.547Z,42.80
2023-01-06T19:33:22.358Z,31.83
2023-01-06T19:35:58.466Z,29.80
2023-01-06T19:38:37.610Z,28.60
2023-01-06T19:41:12.046Z,31.83
2023-01-06T19:43:39.438Z,36.45
2023-01-06T19:46:24.179Z,38.58
2023-01-06T19:48:52.284Z,44.53
2023-01-06T19:51:24.283Z,44.50
2023-01-06T19:53:54.696Z,32.25
2023-01-06T19:56:34.600Z,31.95
2023-01-06T19:59:35.837Z,37.92
2023-01-06T20:02:09.608Z,32.05
2023-01-06T20:04:37.443Z,31.85
2023-01-06T20:07:04.840Z,33.90
2023-01-06T20:09:33.760Z,33.88
2023-01-06T20:12:01.881Z,34.90
2023-01-06T20:14:29.303Z,32.88
2023-01-06T20:16:57.633Z,32.17
2023-01-06T20:19:25.369Z,32.95
2023-01-06T20:21:52.762Z,32.40
2023-01-06T20:24:20.203Z,26.20
2023-01-06T20:26:47.874Z,24.02
2023-01-06T20:29:15.286Z,22.77
2023-01-06T20:31:43.011Z,25.60
2023-01-06T20:34:10.809Z,27.62
2023-01-06T20:36:38.251Z,28.77
2023-01-06T20:39:05.622Z,30.90
2023-01-06T20:41:33.341Z,27.20
2023-01-06T20:44:00.727Z,29.85
2023-01-06T20:46:28.106Z,32.95
2023-01-06T20:48:55.790Z,29.17
2023-01-06T20:51:23.254Z,25.95
2023-01-06T20:53:50.730Z,27.17
2023-01-06T20:56:18.384Z,28.38
2023-01-06T20:58:45.779Z,29.33
2023-01-06T21:01:13.317Z,26.35
2023-01-06T21:03:41.139Z,28.67
2023-01-06T21:06:08.518Z,29.73
2023-01-06T21:08:35.910Z,30.27
2023-01-06T21:11:03.646Z,30.58
2023-01-06T21:13:31.051Z,27.80
2023-01-06T21:15:58.473Z,32.30
2023-01-06T21:18:26.117Z,23.90
2023-01-06T21:20:53.575Z,27.40
2023-01-06T21:23:20.995Z,24.35
2023-01-06T21:25:48.663Z,25.23
2023-01-06T21:28:16.077Z,27.60
2023-01-06T21:30:43.524Z,31.02
2023-01-06T21:33:11.226Z,28.05
2023-01-06T21:35:38.694Z,29.75
2023-01-06T21:38:06.112Z,34.80
2023-01-06T21:40:33.801Z,33.13
2023-01-06T21:43:09.817Z,32.58
2023-01-06T21:45:39.584Z,30.27
2023-01-06T21:48:07.883Z,27.62
2023-01-06T21:50:41.544Z,29.50
2023-01-06T21:53:10.283Z,25.10
2023-01-06T21:55:37.826Z,25.65
2023-01-06T21:58:05.492Z,26.98
2023-01-06T22:00:33.132Z,22.98
2023-01-06T22:03:00.926Z,21.67
2023-01-06T22:05:28.599Z,24.65
2023-01-06T22:07:56.100Z,22.10
2023-01-06T22:10:24.879Z,24.63
2023-01-06T22:12:53.718Z,27.13
2023-01-06T22:15:21.951Z,19.87
2023-01-06T22:17:50.270Z,24.50
2023-01-06T22:20:18.005Z,21.52
2023-01-06T22:22:46.440Z,22.08
2023-01-06T22:25:14.104Z,21.25
2023-01-06T22:27:41.451Z,18.90
2023-01-06T22:30:09.477Z,25.25
2023-01-06T22:32:44.556Z,22.37
2023-01-06T22:35:13.348Z,21.20
2023-01-06T22:37:41.899Z,23.62
2023-01-06T22:40:10.322Z,28.48
2023-01-06T22:42:37.785Z,23.67
2023-01-06T22:45:06.282Z,19.75
2023-01-06T22:47:33.810Z,22.27
2023-01-06T22:50:02.482Z,19.27
2023-01-06T22:52:30.277Z,20.12
2023-01-06T22:54:57.623Z,16.52
2023-01-06T22:57:25.139Z,15.88
2023-01-06T22:59:52.805Z,17.25
2023-01-06T23:02:20.307Z,17.77
2023-01-06T23:04:47.781Z,16.58
2023-01-06T23:07:15.942Z,17.45
2023-01-06T23:09:43.377Z,16.58
2023-01-06T23:12:10.803Z,14.70
2023-01-06T23:14:38.471Z,14.30
2023-01-06T23:17:05.854Z,15.23
2023-01-06T23:19:33.260Z,18.55
2023-01-06T23:22:00.931Z,15.75
2023-01-06T23:24:28.430Z,17.23
2023-01-06T23:26:55.796Z,16.40
2023-01-06T23:29:23.434Z,17.70
2023-01-06T23:31:50.876Z,14.80
2023-01-06T23:34:18.957Z,11.45
2023-01-06T23:36:47.549Z,12.07
2023-01-06T23:39:17.029Z,14.75
2023-01-06T23:41:44.495Z,13.18
2023-01-06T23:44:14.927Z,16.42
2023-01-06T23:46:42.758Z,15.45
2023-01-06T23:49:12.445Z,16.95
2023-01-06T23:51:40.201Z,11.75
2023-01-06T23:54:08.312Z,15.35
2023-01-06T23:56:36.871Z,14.15
2023-01-06T23:59:06.978Z,19.02
